Alexandria International Airport
KAEX : rendu visible

Aérodrome :











RETROUVEZ-NOUS SUR...

 
LOGIN :

S'inscrire | Disclaimer

   EN    FR    IT 

 









Légende :    VFR   VFR Marginal   IFR   IFR Intensif   IFR Très Intensif
Visi : 
Plafond : 
>= 8 km
>= 3000ft
5 à 8 km
1000 à 3000 ft
1500m à 5 km
500 à 1000 ft
800 à 1500m
200 à 500 ft
< 800m
< 200 ft
Symboles :   Orages  Brouillard  Fortes neiges  Fortes précipitations  Vent > 20 kt






- Altitude de l'aérodrome : 89 ft
- Code IATA : AEX


KAEX - Alexandria International

DERNIER METAR :
  • 261453Z AUTO VRB03KT 9SM -RA BKN010 OVC019 09/08 A3004 RMK AO2 CIG 007V012 SLP178 P0004 60030 T00940083 53010

METARs EXPIRÉS :
  • 261353Z 12011KT 4SM RA OVC023 09/08 A3003 RMK AO2 SLP172 P0017 T00940078
  • 261329Z 11010KT 3SM +RA BKN023 OVC030 09/08 A3003 RMK AO2 P0013 T00940078
  • 261324Z 12012KT 2 1/2SM +RA SCT023 OVC030 09/08 A3003 RMK AO2 P0011 T00940078
  • 261253Z 12011KT 6SM -RA BKN027 OVC033 09/08 A3002 RMK AO2 SLP169 P0009 T00940078

TAF KAEX
Valide du 26 à 12h jusqu'au 27 à 12h UTC


261141Z 2612/2712 12007KT P6SM -SHRA SCT018 OVC045
TEMPO 2612/2616 5SM -RA BKN030 BKN045 OVC060
FM261600 12009KT P6SM -RA OVC013
TEMPO 2616/2620 -RA SCT007 OVC018
FM262000 13008KT P6SM VCSH OVC010
FM270300 12003KT 4SM BR OVC007



MET'MAP, la Météo Aéronautique d'un coup d'oeil ! - Copyright ORBIFLY Décembre 2007 - Disclaimer

ORBIFLY MET'MAP TEAM :

Programmation & Développement : Alexandra Zaïnal
Sur une idée originale de : Baudouin d'Aumeries
Assistance à la programmation : Marc-Olivier Méhu
Soutien technique & logistique : Manuel Goepfert

Contact : metmap@orbifly.com




SOURCES & CREDITS :

   NOAA       Earth
Advisory